createdAt,value
2019-04-23T00:00:56.223Z,5.80
2019-04-23T00:03:23.871Z,5.97
2019-04-23T00:06:13.460Z,5.40
2019-04-23T00:08:44.790Z,6.10
2019-04-23T00:10:53.950Z,5.67
2019-04-23T00:13:26.879Z,6.00
2019-04-23T00:16:03.788Z,6.23
2019-04-23T00:18:34.099Z,6.50
2019-04-23T00:21:06.885Z,6.20
2019-04-23T00:23:40.731Z,5.93
2019-04-23T00:26:19.790Z,6.00
2019-04-23T00:31:13.369Z,7.30
2019-04-23T00:33:55.651Z,6.97
2019-04-23T00:36:05.281Z,7.07
2019-04-23T00:41:02.955Z,8.60
2019-04-23T00:43:34.519Z,8.30
2019-04-23T00:46:01.731Z,6.50
2019-04-23T00:48:34.953Z,8.57
2019-04-23T00:53:30.296Z,8.23
2019-04-23T00:56:21.904Z,8.70
2019-04-23T00:58:38.217Z,8.33
2019-04-23T01:01:00.447Z,8.67
2019-04-23T01:03:27.370Z,8.53
2019-04-23T01:06:04.996Z,8.37
2019-04-23T01:11:01.851Z,9.27
2019-04-23T01:13:31.922Z,9.10
2019-04-23T01:16:09.118Z,9.40
2019-04-23T01:18:50.532Z,9.93
2019-04-23T01:20:54.098Z,8.63
2019-04-23T01:23:44.373Z,10.13
2019-04-23T01:26:30.863Z,11.10
2019-04-23T01:29:05.257Z,10.00
2019-04-23T01:31:33.145Z,10.90
2019-04-23T01:34:07.255Z,9.27
2019-04-23T01:39:01.537Z,10.23
2019-04-23T01:41:33.730Z,11.40
2019-04-23T01:43:57.462Z,11.40
2019-04-23T01:48:58.649Z,11.27
2019-04-23T01:51:36.341Z,9.13
2019-04-23T01:53:57.132Z,11.67
2019-04-23T01:56:30.796Z,10.80
2019-04-23T01:58:59.827Z,9.93
2019-04-23T02:01:33.894Z,11.47
2019-04-23T02:06:25.123Z,11.70
2019-04-23T02:08:58.574Z,9.83
2019-04-23T02:11:28.478Z,10.73
2019-04-23T02:13:55.580Z,11.37
2019-04-23T02:16:25.870Z,11.30
2019-04-23T02:19:11.361Z,10.70
2019-04-23T02:21:22.527Z,11.87
2019-04-23T02:23:54.823Z,11.37
2019-04-23T02:26:27.980Z,11.30
2019-04-23T02:29:03.346Z,12.20
2019-04-23T02:36:34.966Z,11.23
2019-04-23T02:39:13.042Z,12.07
2019-04-23T02:44:04.959Z,12.40
2019-04-23T02:46:55.989Z,11.77
2019-04-23T02:51:36.442Z,11.93
2019-04-23T02:54:06.336Z,9.90
2019-04-23T02:56:47.083Z,10.97
2019-04-23T02:59:05.772Z,12.90
2019-04-23T03:01:25.284Z,11.17
2019-04-23T03:04:02.311Z,11.37
2019-04-23T03:06:29.893Z,8.80
2019-04-23T03:08:50.570Z,12.43
2019-04-23T03:11:32.535Z,12.53
2019-04-23T03:16:38.089Z,11.87
2019-04-23T03:21:59.725Z,11.57
2019-04-23T03:27:22.356Z,11.13
2019-04-23T03:29:51.240Z,11.07
2019-04-23T03:37:18.889Z,9.90
2019-04-23T03:47:11.226Z,11.63
2019-04-23T03:49:43.911Z,11.40
2019-04-23T03:52:13.721Z,10.63
2019-04-23T03:59:44.839Z,12.17
2019-04-23T04:02:20.899Z,11.17
2019-04-23T04:04:32.844Z,9.23
2019-04-23T04:07:15.637Z,13.03
2019-04-23T04:09:47.746Z,10.90
2019-04-23T04:12:10.420Z,10.43
2019-04-23T04:14:42.093Z,10.60
2019-04-23T04:19:44.856Z,10.50
2019-04-23T04:24:37.287Z,9.47
2019-04-23T04:27:12.388Z,8.97
2019-04-23T04:29:40.394Z,10.60
2019-04-23T04:37:26.842Z,8.10
2019-04-23T04:39:40.341Z,10.20
2019-04-23T04:41:58.676Z,8.00
2019-04-23T04:47:05.382Z,10.90
2019-04-23T04:49:34.024Z,11.03
2019-04-23T04:52:22.714Z,10.20
2019-04-23T04:57:03.813Z,10.83
2019-04-23T04:59:25.768Z,9.23
2019-04-23T05:02:09.035Z,10.57
2019-04-23T05:04:28.558Z,9.60
2019-04-23T05:12:01.486Z,9.60
2019-04-23T05:16:50.711Z,9.73
2019-04-23T05:21:55.654Z,9.57
2019-04-23T05:24:24.472Z,9.43
2019-04-23T05:26:43.050Z,7.37
2019-04-23T05:29:11.544Z,9.60
2019-04-23T05:31:43.085Z,7.57
2019-04-23T05:34:08.774Z,10.50
2019-04-23T05:41:41.518Z,8.90
2019-04-23T05:44:15.482Z,9.60
2019-04-23T05:46:42.947Z,9.30
2019-04-23T05:49:11.057Z,9.30
2019-04-23T05:54:12.849Z,9.30
2019-04-23T05:56:42.151Z,9.50
2019-04-23T05:59:14.627Z,8.33
2019-04-23T06:04:29.292Z,8.47
2019-04-23T06:06:45.176Z,8.90
2019-04-23T06:09:07.827Z,7.70
2019-04-23T06:11:49.195Z,9.03
2019-04-23T06:19:11.103Z,8.07
2019-04-23T06:21:44.780Z,8.63
2019-04-23T06:24:15.044Z,7.70
2019-04-23T06:29:10.284Z,8.73
2019-04-23T06:31:40.773Z,8.73
2019-04-23T06:34:11.140Z,8.90
2019-04-23T06:36:32.624Z,8.50
2019-04-23T06:39:01.338Z,8.77
2019-04-23T06:41:39.631Z,8.43
2019-04-23T06:44:13.009Z,8.63
2019-04-23T06:46:46.060Z,8.87
2019-04-23T06:49:11.158Z,8.90
2019-04-23T06:51:46.602Z,8.03
2019-04-23T06:54:08.751Z,8.23
2019-04-23T06:56:42.813Z,7.00
2019-04-23T06:59:09.542Z,8.00
2019-04-23T07:01:35.844Z,8.10
2019-04-23T07:04:05.550Z,8.20
2019-04-23T07:11:34.156Z,8.60
2019-04-23T07:16:27.696Z,8.37
2019-04-23T07:19:04.303Z,7.33
2019-04-23T07:21:30.382Z,9.13
2019-04-23T07:36:32.657Z,7.70
2019-04-23T07:39:19.041Z,8.70
2019-04-23T07:42:11.165Z,8.30
2019-04-23T07:44:54.480Z,7.83
2019-04-23T07:47:35.081Z,7.80
2019-04-23T07:50:26.169Z,7.33
2019-04-23T07:52:47.953Z,8.07
2019-04-23T07:55:19.460Z,8.27
2019-04-23T07:57:35.047Z,8.07
2019-04-23T08:00:07.559Z,7.00
2019-04-23T08:05:25.200Z,7.43
2019-04-23T08:07:41.042Z,7.87
2019-04-23T08:17:28.123Z,7.87
2019-04-23T08:22:39.603Z,9.70
2019-04-23T08:25:27.254Z,7.33
2019-04-23T08:28:06.201Z,7.73
2019-04-23T08:30:36.159Z,7.70
2019-04-23T08:33:04.644Z,7.63
2019-04-23T08:35:33.882Z,7.33
2019-04-23T08:40:35.314Z,6.67
2019-04-23T08:45:55.085Z,5.73
2019-04-23T08:50:50.710Z,7.13
2019-04-23T08:55:53.654Z,7.37
2019-04-23T08:58:27.426Z,6.97
2019-04-23T09:03:25.305Z,7.30
2019-04-23T09:10:55.820Z,7.43
2019-04-23T09:15:49.786Z,6.90
2019-04-23T09:18:21.019Z,7.47
2019-04-23T09:20:42.978Z,6.40
2019-04-23T09:23:24.201Z,7.40
2019-04-23T09:28:27.693Z,7.00
2019-04-23T09:36:25.805Z,6.37
2019-04-23T09:39:32.645Z,7.67
2019-04-23T09:42:12.523Z,7.43
2019-04-23T09:45:11.088Z,8.20
2019-04-23T09:47:50.460Z,7.90
2019-04-23T09:50:20.434Z,8.33
2019-04-23T09:52:56.085Z,7.47
2019-04-23T09:55:25.447Z,7.53
2019-04-23T09:57:50.263Z,7.63
2019-04-23T10:00:25.607Z,7.17
2019-04-23T10:02:35.720Z,5.70
2019-04-23T10:04:59.816Z,7.43
2019-04-23T10:07:33.538Z,6.93
2019-04-23T10:09:48.364Z,5.70
2019-04-23T10:12:17.751Z,7.73
2019-04-23T10:14:53.859Z,7.93
2019-04-23T10:17:16.050Z,7.83
2019-04-23T10:19:44.695Z,6.97
2019-04-23T10:22:13.323Z,7.20
2019-04-23T10:24:41.164Z,6.63
2019-04-23T10:27:10.042Z,6.23
2019-04-23T10:29:39.174Z,6.67
2019-04-23T10:32:07.523Z,5.07
2019-04-23T10:34:44.970Z,6.60
2019-04-23T10:37:05.335Z,7.00
2019-04-23T10:39:38.907Z,6.23
2019-04-23T10:42:03.384Z,4.93
2019-04-23T10:44:38.003Z,6.60
2019-04-23T10:47:59.451Z,7.63
2019-04-23T10:50:43.757Z,7.10
2019-04-23T10:53:09.187Z,7.87
2019-04-23T10:55:44.827Z,6.70
2019-04-23T10:58:02.547Z,7.30
2019-04-23T11:00:37.270Z,8.03
2019-04-23T11:03:12.307Z,7.90
2019-04-23T11:05:47.452Z,6.53
2019-04-23T11:08:08.096Z,7.17
2019-04-23T11:10:25.943Z,6.90
2019-04-23T11:13:10.713Z,7.43
2019-04-23T11:15:55.836Z,6.57
2019-04-23T11:18:09.074Z,7.17
2019-04-23T11:22:59.113Z,7.20
2019-04-23T11:25:35.979Z,6.07
2019-04-23T11:28:17.972Z,7.53
2019-04-23T11:33:15.337Z,7.70
2019-04-23T11:40:40.314Z,8.00
2019-04-23T11:43:14.742Z,6.17
2019-04-23T11:50:59.847Z,7.03
2019-04-23T11:51:26.352Z,7.63
2019-04-23T11:53:10.367Z,7.00
2019-04-23T12:01:02.246Z,7.23
2019-04-23T12:03:30.850Z,6.87
2019-04-23T12:06:23.728Z,7.93
2019-04-23T12:09:36.845Z,6.00
2019-04-23T12:14:51.189Z,7.27
2019-04-23T12:17:22.625Z,6.13
2019-04-23T12:22:22.213Z,7.33
2019-04-23T12:25:02.959Z,7.03
2019-04-23T12:35:17.761Z,6.93
2019-04-23T12:38:00.685Z,6.70
2019-04-23T12:40:19.981Z,7.63
2019-04-23T12:42:54.018Z,6.83
2019-04-23T12:45:27.445Z,7.53
2019-04-23T12:52:46.867Z,7.00
2019-04-23T12:57:46.729Z,5.90
2019-04-23T13:00:19.476Z,6.87
2019-04-23T13:02:48.496Z,6.77
2019-04-23T13:05:14.522Z,7.43
2019-04-23T13:07:43.752Z,6.77
2019-04-23T13:10:14.766Z,6.40
2019-04-23T13:12:54.787Z,6.07
2019-04-23T13:15:17.274Z,4.63
2019-04-23T13:17:50.552Z,6.17
2019-04-23T13:20:19.438Z,6.97
2019-04-23T13:22:53.529Z,5.80
2019-04-23T13:28:13.046Z,6.23
2019-04-23T13:35:53.290Z,6.60
2019-04-23T13:38:36.397Z,5.43
2019-04-23T13:45:59.665Z,5.97
2019-04-23T13:48:13.472Z,6.67
2019-04-23T13:50:53.426Z,6.63
2019-04-23T13:53:31.636Z,7.57
2019-04-23T13:55:42.820Z,6.83
2019-04-23T13:58:32.961Z,6.80
2019-04-23T14:00:52.361Z,6.87
2019-04-23T14:03:26.363Z,6.00
2019-04-23T14:06:17.989Z,6.77
2019-04-23T14:08:48.610Z,6.80
2019-04-23T14:11:10.708Z,6.27
2019-04-23T14:16:11.734Z,6.37
2019-04-23T14:21:14.952Z,5.80
2019-04-23T14:23:57.842Z,7.77
2019-04-23T14:28:41.810Z,6.90
2019-04-23T14:31:05.923Z,6.90
2019-04-23T14:36:22.891Z,6.47
2019-04-23T14:41:12.497Z,6.07
2019-04-23T14:43:45.379Z,6.83
2019-04-23T14:51:16.552Z,6.33
2019-04-23T14:53:39.788Z,6.33
2019-04-23T14:56:09.468Z,7.33
2019-04-23T14:58:42.570Z,7.07
2019-04-23T15:01:21.649Z,7.17
2019-04-23T15:03:39.882Z,6.50
2019-04-23T15:06:19.821Z,7.83
2019-04-23T15:08:50.333Z,8.33
2019-04-23T15:13:39.235Z,8.00
2019-04-23T15:19:06.291Z,7.57
2019-04-23T15:28:30.252Z,7.70
2019-04-23T15:36:32.547Z,7.27
2019-04-23T15:39:04.205Z,8.40
2019-04-23T15:41:23.713Z,8.20
2019-04-23T15:43:52.226Z,7.83
2019-04-23T15:48:57.542Z,8.47
2019-04-23T15:53:46.522Z,8.20
2019-04-23T15:56:32.898Z,8.23
2019-04-23T15:58:56.103Z,7.87
2019-04-23T16:03:20.587Z,7.90
2019-04-23T16:05:48.978Z,8.07
2019-04-23T16:08:51.762Z,6.83
2019-04-23T16:11:33.245Z,7.03
2019-04-23T16:14:10.183Z,9.30
2019-04-23T16:16:25.654Z,8.00
2019-04-23T16:24:21.926Z,8.60
2019-04-23T16:26:51.036Z,8.00
2019-04-23T16:31:39.854Z,8.97
2019-04-23T16:34:33.645Z,8.97
2019-04-23T16:37:09.940Z,8.03
2019-04-23T16:39:31.141Z,8.30
2019-04-23T16:44:40.428Z,8.47
2019-04-23T16:47:14.495Z,8.27
2019-04-23T16:49:34.711Z,8.43
2019-04-23T16:52:01.323Z,9.23
2019-04-23T16:54:31.230Z,9.00
2019-04-23T17:04:30.760Z,9.60
2019-04-23T17:06:57.670Z,8.87
2019-04-23T17:09:38.048Z,9.47
2019-04-23T17:14:23.260Z,8.50
2019-04-23T17:16:49.336Z,9.50
2019-04-23T17:22:02.819Z,8.90
2019-04-23T17:24:23.096Z,9.10
2019-04-23T17:26:54.326Z,9.20
2019-04-23T17:31:53.641Z,10.53
2019-04-23T17:34:35.212Z,9.07
2019-04-23T17:37:17.986Z,8.93
2019-04-23T17:39:52.703Z,10.03
2019-04-23T17:47:52.306Z,9.17
2019-04-23T17:50:21.363Z,9.90
2019-04-23T17:52:52.640Z,9.87
2019-04-23T17:55:18.276Z,10.40
2019-04-23T17:57:43.069Z,9.93
2019-04-23T18:02:55.163Z,9.77
2019-04-23T18:10:25.018Z,9.77
2019-04-23T18:15:10.651Z,9.70
2019-04-23T18:17:49.535Z,10.47
2019-04-23T18:20:31.621Z,9.87
2019-04-23T18:23:06.169Z,10.60
2019-04-23T18:25:45.675Z,10.60
2019-04-23T18:28:00.567Z,10.87
2019-04-23T18:36:03.236Z,9.03
2019-04-23T18:41:05.262Z,10.83
2019-04-23T18:46:08.247Z,10.97
2019-04-23T18:48:45.521Z,10.43
2019-04-23T18:56:06.571Z,10.73
2019-04-23T18:58:44.833Z,10.40
2019-04-23T19:01:05.361Z,11.57
2019-04-23T19:06:40.809Z,11.20
2019-04-23T19:10:11.718Z,11.83
2019-04-23T19:12:38.224Z,12.23
2019-04-23T19:20:00.571Z,10.83
2019-04-23T19:22:42.814Z,12.70
2019-04-23T19:25:01.942Z,11.40
2019-04-23T19:27:36.997Z,12.03
2019-04-23T19:30:03.397Z,10.33
2019-04-23T19:32:41.948Z,12.00
2019-04-23T19:35:04.445Z,12.03
2019-04-23T19:37:53.756Z,11.17
2019-04-23T19:40:00.270Z,13.10
2019-04-23T19:42:36.848Z,11.10
2019-04-23T19:45:04.738Z,11.67
2019-04-23T19:49:57.060Z,11.77
2019-04-23T19:52:52.193Z,11.67
2019-04-23T19:54:58.586Z,11.97
2019-04-23T19:57:39.680Z,11.77
2019-04-23T20:00:02.762Z,10.17
2019-04-23T20:02:48.122Z,11.67
2019-04-23T20:04:59.725Z,11.47
2019-04-23T20:09:55.209Z,11.67
2019-04-23T20:12:28.388Z,10.83
2019-04-23T20:14:56.184Z,11.50
2019-04-23T20:19:54.494Z,11.50
2019-04-23T20:25:18.593Z,12.17
2019-04-23T20:32:12.725Z,10.23
2019-04-23T20:33:34.985Z,12.17
2019-04-23T20:35:16.534Z,11.67
2019-04-23T20:40:26.493Z,11.30
2019-04-23T20:45:23.062Z,11.20
2019-04-23T20:47:52.822Z,12.90
2019-04-23T20:50:15.914Z,11.70
2019-04-23T20:52:46.898Z,12.57
2019-04-23T20:55:29.214Z,11.23
2019-04-23T20:58:03.672Z,10.67
2019-04-23T21:00:56.680Z,12.27
2019-04-23T21:03:32.905Z,11.40
2019-04-23T21:05:50.006Z,11.33
2019-04-23T21:08:13.862Z,12.10
2019-04-23T21:10:42.994Z,13.07
2019-04-23T21:18:17.201Z,13.50
2019-04-23T21:20:40.016Z,12.03
2019-04-23T21:23:14.570Z,12.23
2019-04-23T21:25:44.202Z,12.57
2019-04-23T21:28:18.022Z,12.37
2019-04-23T21:31:03.417Z,12.50
2019-04-23T21:33:26.551Z,11.87
2019-04-23T21:38:56.673Z,12.17
2019-04-23T21:41:39.630Z,12.57
2019-04-23T21:46:20.886Z,12.77
2019-04-23T21:49:09.094Z,12.33
2019-04-23T21:51:31.207Z,12.67
2019-04-23T21:58:58.843Z,12.37
2019-04-23T22:06:31.636Z,11.97
2019-04-23T22:09:00.861Z,12.63
2019-04-23T22:11:42.883Z,12.93
2019-04-23T22:14:06.913Z,12.10
2019-04-23T22:16:47.027Z,11.73
2019-04-23T22:19:04.243Z,13.23
2019-04-23T22:21:20.844Z,12.67
2019-04-23T22:23:58.309Z,10.80
2019-04-23T22:26:25.319Z,12.67
2019-04-23T22:28:57.721Z,12.30
2019-04-23T22:31:23.100Z,12.73
2019-04-23T22:33:54.911Z,13.40
2019-04-23T22:36:15.074Z,14.47
2019-04-23T22:38:52.682Z,13.50
2019-04-23T22:41:16.121Z,12.57
2019-04-23T22:43:53.120Z,13.03
2019-04-23T22:46:27.908Z,12.87
2019-04-23T22:49:23.134Z,13.50
2019-04-23T22:51:45.775Z,13.23
2019-04-23T22:54:11.821Z,13.10
2019-04-23T22:56:45.223Z,13.57
2019-04-23T23:04:15.522Z,12.13
2019-04-23T23:06:48.595Z,12.73
2019-04-23T23:09:19.314Z,12.63
2019-04-23T23:11:42.984Z,12.73
2019-04-23T23:14:23.855Z,13.10
2019-04-23T23:16:35.850Z,13.80
2019-04-23T23:19:14.188Z,12.13
2019-04-23T23:21:48.538Z,12.37
2019-04-23T23:26:54.373Z,13.33
2019-04-23T23:29:04.118Z,12.53
2019-04-23T23:31:37.185Z,12.40
2019-04-23T23:34:09.498Z,12.57
2019-04-23T23:36:38.780Z,12.47
2019-04-23T23:39:05.527Z,13.10
2019-04-23T23:46:56.282Z,12.57
2019-04-23T23:49:03.165Z,13.23
2019-04-23T23:55:08.327Z,11.83
2019-04-23T23:56:30.637Z,11.60
